Terminal Aerodrome Forecast
Issued by NWS

Home | Current Version | Previous Version | Graphics & Text | Print | Product List | Glossary On
Versions: 1 2 3 4 5 6 7 8 9 10 11 12 13 14 15 16 17 18
236
FTUS43 KMPX 291237 AAA
TAFRNH
TAF AMD
KRNH 291237Z 2913/3012 VRB02KT 1/4SM FG OVC003
      TEMPO 2913/2914 2SM BR BKN006
     FM291400 01004KT 6SM BR SCT015 BKN025
     FM291600 03007KT P6SM SCT025 BKN035
     FM300000 04006KT P6SM SCT250=

USA.gov is the U.S. government's official web portal to all federal, state and local government web resources and services.